首页
METAR-TAF:

METAR-TAF

机场 :

乌日策, 塞尔维亚

纬度: 43-53-56N, 经度: 19-41-52E, 海拔: 904米

当前天气观测

该预报发布于32分钟前的19:00 UTC
风速8节,风向,在东转东南西之间变化
温度 14°C
湿度 63%
气压 1009 hPa
能见度10公里或以上
1500米以下无云,无积雨云

METAR: LYUZ 051900Z AUTO 19008KT 110V260 CAVOK 14/07 Q1009

时间: 21:32 (19:32 UTC)

预报

该预报发布于2小时和32分钟前的17:00 UTC
预报有效从05日的 18点(UTC)到 06日的 18点(UTC)
风速6节,风向
能见度10公里或以上
1500米以下无云,无积雨云
短暂存在
从 06日的 12点(UTC)到 06日的 18点(UTC)
风速20节,风向多变
能見度: 3000
散云层高于1700英尺, 积雨云.
多云层高于2000英尺
雷暴, 雨

TAF: LYUZ 051700Z 0518/0618 10006KT CAVOK TX18/0613Z TN09/0603Z TEMPO 0612/0618 VRB20KT 3000 TSRA SCT017CB BKN020

超过4000个机场的气象观测和天气预报(METAR&TAF报告)。

可查询的气象台以黄色和红色小点在地图上表示。

将鼠标移到小点上方,可查看气象台名称。

然后点击查看天气观测和预报。

如需切换地图:点击带黑十字的绿色按钮放大地图;点击带横线的绿色按钮缩小地图;或者点击绿色箭头查看邻近地区的地图。


METAR-TAF: